createdAt,value
2022-09-12T00:01:28.815Z,100777.84
2022-09-12T00:03:58.317Z,100775.97
2022-09-12T00:06:27.887Z,100779.50
2022-09-12T00:08:56.401Z,100776.47
2022-09-12T00:11:23.135Z,100785.78
2022-09-12T00:13:50.155Z,100773.50
2022-09-12T00:16:20.641Z,100774.31
2022-09-12T00:18:47.362Z,100777.59
2022-09-12T00:21:15.276Z,100776.75
2022-09-12T00:23:41.840Z,100765.31
2022-09-12T00:26:08.446Z,100767.22
2022-09-12T00:28:36.862Z,100762.88
2022-09-12T00:31:08.900Z,100762.88
2022-09-12T00:33:36.758Z,100763.94
2022-09-12T00:36:23.184Z,100762.84
2022-09-12T00:38:51.018Z,100761.50
2022-09-12T00:41:24.150Z,100763.94
2022-09-12T00:43:58.419Z,100767.75
2022-09-12T00:46:46.097Z,100766.69
2022-09-12T00:49:24.266Z,100763.66
2022-09-12T00:52:16.677Z,100758.50
2022-09-12T00:54:48.020Z,100759.03
2022-09-12T00:57:16.265Z,100759.84
2022-09-12T00:59:57.241Z,100755.75
2022-09-12T01:02:24.699Z,100755.75
2022-09-12T01:04:52.234Z,100755.22
2022-09-12T01:07:19.978Z,100755.22
2022-09-12T01:09:46.717Z,100757.38
2022-09-12T01:12:15.383Z,100753.56
2022-09-12T01:14:42.442Z,100751.41
2022-09-12T01:17:13.819Z,100749.75
2022-09-12T01:20:07.454Z,100739.94
2022-09-12T01:23:01.914Z,100744.84
2022-09-12T01:25:39.922Z,100744.03
2022-09-12T01:28:33.865Z,100741.28
2022-09-12T01:31:03.495Z,100743.22
2022-09-12T01:33:44.682Z,100739.66
2022-09-12T01:36:24.249Z,100741.88
2022-09-12T01:38:55.163Z,100737.75
2022-09-12T01:41:43.636Z,100736.38
2022-09-12T01:44:13.016Z,100730.94
2022-09-12T01:46:55.974Z,100724.66
2022-09-12T01:49:41.276Z,100724.38
2022-09-12T01:52:15.632Z,100723.84
2022-09-12T01:54:49.373Z,100717.56
2022-09-12T01:57:30.021Z,100718.66
2022-09-12T02:00:03.773Z,100717.84
2022-09-12T02:02:38.587Z,100713.19
2022-09-12T02:05:14.747Z,100711.81
2022-09-12T02:07:51.143Z,100711.56
2022-09-12T02:10:22.552Z,100714.84
2022-09-12T02:13:23.271Z,100715.66
2022-09-12T02:15:55.437Z,100714.28
2022-09-12T02:18:24.575Z,100715.34
2022-09-12T02:20:51.832Z,100713.13
2022-09-12T02:23:25.297Z,100717.00
2022-09-12T02:25:56.257Z,100713.69
2022-09-12T02:28:43.276Z,100707.19
2022-09-12T02:31:09.707Z,100710.41
2022-09-12T02:33:41.175Z,100710.75
2022-09-12T02:36:15.532Z,100699.50
2022-09-12T02:38:46.866Z,100702.78
2022-09-12T02:41:17.639Z,100701.72
2022-09-12T02:43:44.227Z,100701.97
2022-09-12T02:46:18.020Z,100703.06
2022-09-12T02:48:44.648Z,100699.50
2022-09-12T02:51:11.619Z,100695.44
2022-09-12T02:53:39.122Z,100696.22
2022-09-12T02:56:11.215Z,100692.97
2022-09-12T02:58:37.882Z,100690.25
2022-09-12T03:01:34.740Z,100690.25
2022-09-12T03:04:19.536Z,100690.25
2022-09-12T03:07:02.406Z,100687.78
2022-09-12T03:09:47.168Z,100689.72
2022-09-12T03:12:39.642Z,100688.59
2022-09-12T03:15:12.424Z,100686.94
2022-09-12T03:18:05.440Z,100684.25
2022-09-12T03:20:46.020Z,100680.44
2022-09-12T03:23:26.005Z,100680.41
2022-09-12T03:26:01.665Z,100682.59
2022-09-12T03:28:29.211Z,100672.22
2022-09-12T03:30:56.633Z,100676.03
2022-09-12T03:33:25.845Z,100684.19
2022-09-12T03:35:53.309Z,100684.75
2022-09-12T03:38:20.135Z,100677.66
2022-09-12T03:40:49.330Z,100683.09
2022-09-12T03:43:18.032Z,100682.00
2022-09-12T03:45:44.587Z,100683.09
2022-09-12T03:48:11.086Z,100677.13
2022-09-12T03:50:37.533Z,100688.63
2022-09-12T03:53:04.251Z,100685.56
2022-09-12T03:55:31.222Z,100689.66
2022-09-12T03:57:57.808Z,100689.09
2022-09-12T04:00:24.816Z,100683.91
2022-09-12T04:02:57.798Z,100689.09
2022-09-12T04:05:25.497Z,100686.06
2022-09-12T04:07:52.529Z,100690.72
2022-09-12T04:10:19.266Z,100688.25
2022-09-12T04:12:45.790Z,100688.53
2022-09-12T04:15:12.379Z,100694.59
2022-09-12T04:17:39.946Z,100692.34
2022-09-12T04:20:07.017Z,100696.69
2022-09-12T04:22:33.802Z,100695.59
2022-09-12T04:25:00.344Z,100695.59
2022-09-12T04:27:26.701Z,100697.31
2022-09-12T04:29:55.375Z,100688.78
2022-09-12T04:32:22.495Z,100691.50
2022-09-12T04:34:49.243Z,100691.50
2022-09-12T04:37:16.930Z,100685.75
2022-09-12T04:39:43.432Z,100689.56
2022-09-12T04:42:09.982Z,100690.25
2022-09-12T04:44:36.494Z,100688.22
2022-09-12T04:47:03.382Z,100691.84
2022-09-12T04:49:29.967Z,100685.22
2022-09-12T04:51:56.481Z,100692.41
2022-09-12T04:54:23.024Z,100695.00
2022-09-12T04:56:50.740Z,100697.72
2022-09-12T04:59:19.831Z,100689.00
2022-09-12T05:01:46.553Z,100690.34
2022-09-12T05:04:13.815Z,100693.34
2022-09-12T05:06:41.806Z,100696.31
2022-09-12T05:09:11.402Z,100699.31
2022-09-12T05:12:03.698Z,100699.25
2022-09-12T05:14:26.708Z,100698.09
2022-09-12T05:16:53.174Z,100698.56
2022-09-12T05:19:19.756Z,100700.78
2022-09-12T05:21:46.194Z,100697.97
2022-09-12T05:24:12.760Z,100698.47
2022-09-12T05:26:39.288Z,100702.44
2022-09-12T05:29:07.187Z,100704.59
2022-09-12T05:31:34.783Z,100702.59
2022-09-12T05:34:02.787Z,100711.69
2022-09-12T05:36:30.537Z,100703.47
2022-09-12T05:38:57.743Z,100714.53
2022-09-12T05:41:26.818Z,100712.63
2022-09-12T05:43:55.187Z,100718.56
2022-09-12T05:46:24.052Z,100713.63
2022-09-12T05:48:55.613Z,100716.88
2022-09-12T05:51:28.293Z,100725.56
2022-09-12T05:53:57.527Z,100717.72
2022-09-12T05:56:27.461Z,100716.97
2022-09-12T05:59:02.570Z,100726.00
2022-09-12T06:01:31.032Z,100720.88
2022-09-12T06:04:00.961Z,100726.03
2022-09-12T06:06:29.781Z,100720.34
2022-09-12T06:08:58.940Z,100724.69
2022-09-12T06:11:28.916Z,100720.34
2022-09-12T06:13:56.893Z,100719.22
2022-09-12T06:16:26.247Z,100723.00
2022-09-12T06:18:55.339Z,100719.16
2022-09-12T06:21:22.748Z,100714.00
2022-09-12T06:23:50.111Z,100707.72
2022-09-12T06:26:18.558Z,100711.53
2022-09-12T06:28:45.473Z,100707.19
2022-09-12T06:31:18.668Z,100710.69
2022-09-12T06:33:47.933Z,100702.00
2022-09-12T06:36:17.389Z,100714.22
2022-09-12T06:38:44.514Z,100702.75
2022-09-12T06:41:12.542Z,100708.47
2022-09-12T06:43:40.692Z,100703.56
2022-09-12T06:46:07.903Z,100711.97
2022-09-12T06:48:39.570Z,100707.59
2022-09-12T06:51:13.557Z,100707.66
2022-09-12T06:53:41.296Z,100706.53
2022-09-12T06:56:12.273Z,100704.69
2022-09-12T06:58:39.144Z,100701.13
2022-09-12T07:01:07.093Z,100702.81
2022-09-12T07:03:34.599Z,100702.28
2022-09-12T07:06:06.493Z,100707.00
2022-09-12T07:08:35.140Z,100707.00
2022-09-12T07:11:11.184Z,100700.84
2022-09-12T07:13:38.807Z,100701.91
2022-09-12T07:16:06.130Z,100704.69
2022-09-12T07:18:34.409Z,100702.59
2022-09-12T07:21:02.408Z,100709.19
2022-09-12T07:23:30.000Z,100703.25
2022-09-12T07:25:58.732Z,100696.25
2022-09-12T07:28:26.742Z,100699.28
2022-09-12T07:30:54.147Z,100701.78
2022-09-12T07:33:22.366Z,100701.31
2022-09-12T07:35:49.690Z,100699.44
2022-09-12T07:38:17.119Z,100699.19
2022-09-12T07:40:44.016Z,100702.75
2022-09-12T07:43:10.523Z,100697.06
2022-09-12T07:45:37.001Z,100698.88
2022-09-12T07:48:03.983Z,100701.00
2022-09-12T07:50:30.436Z,100708.06
2022-09-12T07:52:56.907Z,100704.94
2022-09-12T07:55:24.007Z,100703.50
2022-09-12T07:57:53.260Z,100708.19
2022-09-12T08:00:19.895Z,100703.84
2022-09-12T08:02:51.367Z,100708.78
2022-09-12T08:05:18.605Z,100704.41
2022-09-12T08:07:45.097Z,100707.44
2022-09-12T08:10:11.527Z,100713.22
2022-09-12T08:12:38.105Z,100703.41
2022-09-12T08:15:04.882Z,100704.50
2022-09-12T08:17:31.385Z,100713.22
2022-09-12T08:19:57.894Z,100716.47
2022-09-12T08:22:24.508Z,100711.88
2022-09-12T08:24:51.202Z,100707.72
2022-09-12T08:27:17.731Z,100719.22
2022-09-12T08:29:44.312Z,100711.00
2022-09-12T08:32:10.892Z,100706.63
2022-09-12T08:34:37.370Z,100713.69
2022-09-12T08:37:04.608Z,100706.56
2022-09-12T08:39:32.758Z,100698.06
2022-09-12T08:42:06.788Z,100702.06
2022-09-12T08:44:48.190Z,100690.59
2022-09-12T08:47:22.022Z,100692.72
2022-09-12T08:49:51.720Z,100700.31
2022-09-12T08:52:30.969Z,100696.94
2022-09-12T08:54:57.719Z,100702.09
2022-09-12T08:57:27.033Z,100691.59
2022-09-12T08:59:54.122Z,100688.50
2022-09-12T09:02:53.137Z,100686.47
2022-09-12T09:05:46.002Z,100690.44
2022-09-12T09:08:45.679Z,100685.13
2022-09-12T09:11:31.954Z,100680.34
2022-09-12T09:14:29.312Z,100675.94
2022-09-12T09:16:57.958Z,100676.94
2022-09-12T09:19:37.869Z,100674.63
2022-09-12T09:22:16.729Z,100667.41
2022-09-12T09:24:52.039Z,100670.63
2022-09-12T09:27:40.862Z,100674.03
2022-09-12T09:30:16.649Z,100669.25
2022-09-12T09:32:47.743Z,100658.78
2022-09-12T09:35:38.090Z,100672.31
2022-09-12T09:38:13.918Z,100672.19
2022-09-12T09:41:01.503Z,100669.81
2022-09-12T09:43:29.107Z,100664.88
2022-09-12T09:45:57.586Z,100663.66
2022-09-12T09:48:31.387Z,100658.56
2022-09-12T09:51:00.390Z,100662.34
2022-09-12T09:53:36.892Z,100657.59
2022-09-12T09:56:13.482Z,100651.34
2022-09-12T09:58:40.572Z,100653.16
2022-09-12T10:01:15.800Z,100651.41
2022-09-12T10:03:52.048Z,100648.56
2022-09-12T10:06:21.365Z,100642.50
2022-09-12T10:08:49.228Z,100639.22
2022-09-12T10:11:15.709Z,100641.16
2022-09-12T10:13:54.617Z,100632.53
2022-09-12T10:16:30.618Z,100629.28
2022-09-12T10:19:02.537Z,100634.75
2022-09-12T10:21:35.051Z,100622.59
2022-09-12T10:24:24.500Z,100633.34
2022-09-12T10:27:07.123Z,100632.06
2022-09-12T10:29:39.628Z,100634.59
2022-09-12T10:32:09.238Z,100616.69
2022-09-12T10:34:45.154Z,100627.88
2022-09-12T10:42:15.145Z,100622.19
2022-09-12T10:44:54.009Z,100623.22
2022-09-12T10:47:22.998Z,100617.31
2022-09-12T10:49:51.181Z,100611.81
2022-09-12T10:52:21.888Z,100611.50
2022-09-12T10:54:48.458Z,100609.28
2022-09-12T10:57:17.727Z,100611.63
2022-09-12T11:00:14.767Z,100590.44
2022-09-12T11:02:59.563Z,100599.44
2022-09-12T11:06:01.545Z,100603.53
2022-09-12T11:08:44.213Z,100598.03
2022-09-12T11:11:13.883Z,100598.69
2022-09-12T11:14:02.141Z,100601.78
2022-09-12T11:16:59.689Z,100597.31
2022-09-12T11:19:47.117Z,100597.81
2022-09-12T11:22:40.754Z,100593.72
2022-09-12T11:25:12.473Z,100592.22
2022-09-12T11:27:48.185Z,100590.06
2022-09-12T11:30:18.829Z,100583.97
2022-09-12T11:32:50.341Z,100587.72
2022-09-12T11:35:54.572Z,100588.41
2022-09-12T11:39:01.842Z,100581.78
2022-09-12T11:41:35.655Z,100588.59
2022-09-12T11:44:23.531Z,100579.00
2022-09-12T11:46:52.054Z,100578.50
2022-09-12T11:49:44.033Z,100574.69
2022-09-12T11:52:17.271Z,100571.88
2022-09-12T11:55:03.925Z,100575.28
2022-09-12T11:57:48.418Z,100571.78
2022-09-12T12:00:20.773Z,100566.13
2022-09-12T12:03:33.308Z,100571.94
2022-09-12T12:06:04.159Z,100559.34
2022-09-12T12:08:32.080Z,100578.50
2022-09-12T12:11:03.412Z,100562.97
2022-09-12T12:13:51.221Z,100557.88
2022-09-12T12:16:29.674Z,100560.06
2022-09-12T12:19:01.687Z,100555.47
2022-09-12T12:21:36.219Z,100560.84
2022-09-12T12:24:08.624Z,100555.84
2022-09-12T12:27:01.816Z,100557.97
2022-09-12T12:29:43.650Z,100555.22
2022-09-12T12:32:10.439Z,100548.03
2022-09-12T12:34:42.539Z,100554.34
2022-09-12T12:37:21.052Z,100552.91
2022-09-12T12:39:51.301Z,100546.53
2022-09-12T12:42:33.099Z,100541.91
2022-09-12T12:45:01.059Z,100543.13
2022-09-12T12:47:34.042Z,100538.09
2022-09-12T12:50:05.951Z,100535.34
2022-09-12T12:52:43.999Z,100536.47
2022-09-12T12:55:17.100Z,100532.47
2022-09-12T12:57:55.603Z,100532.81
2022-09-12T13:00:24.868Z,100534.78
2022-09-12T13:03:28.877Z,100526.94
2022-09-12T13:06:01.604Z,100517.56
2022-09-12T13:08:34.521Z,100513.25
2022-09-12T13:11:07.642Z,100517.47
2022-09-12T13:14:12.129Z,100509.75
2022-09-12T13:16:52.141Z,100503.47
2022-09-12T13:19:30.504Z,100513.56
2022-09-12T13:22:01.043Z,100501.91
2022-09-12T13:24:27.633Z,100492.66
2022-09-12T13:26:54.568Z,100493.34
2022-09-12T13:29:23.414Z,100489.63
2022-09-12T13:31:55.453Z,100493.06
2022-09-12T13:35:00.925Z,100485.47
2022-09-12T13:37:49.712Z,100481.56
2022-09-12T13:40:32.396Z,100483.53
2022-09-12T13:43:25.666Z,100478.00
2022-09-12T13:45:52.814Z,100476.88
2022-09-12T13:48:25.325Z,100473.63
2022-09-12T13:50:55.373Z,100482.22
2022-09-12T13:53:25.172Z,100469.44
2022-09-12T13:55:55.833Z,100469.91
2022-09-12T13:58:25.561Z,100461.81
2022-09-12T14:01:01.994Z,100455.16
2022-09-12T14:03:49.150Z,100452.25
2022-09-12T14:06:16.621Z,100449.16
2022-09-12T14:08:44.363Z,100441.38
2022-09-12T14:11:12.558Z,100443.81
2022-09-12T14:13:39.282Z,100432.44
2022-09-12T14:16:09.976Z,100428.22
2022-09-12T14:18:38.634Z,100431.94
2022-09-12T14:21:31.686Z,100423.38
2022-09-12T14:23:59.466Z,100425.63
2022-09-12T14:26:28.278Z,100422.38
2022-09-12T14:28:54.849Z,100409.53
2022-09-12T14:31:28.647Z,100419.41
2022-09-12T14:34:08.832Z,100408.25
2022-09-12T14:36:51.863Z,100412.25
2022-09-12T14:39:33.427Z,100405.25
2022-09-12T14:42:07.674Z,100411.28
2022-09-12T14:44:35.642Z,100408.84
2022-09-12T14:47:13.803Z,100406.88
2022-09-12T14:49:41.159Z,100408.84
2022-09-12T14:52:23.322Z,100405.59
2022-09-12T14:55:16.654Z,100398.63
2022-09-12T14:57:44.574Z,100397.34
2022-09-12T15:00:14.530Z,100394.13
2022-09-12T15:02:44.971Z,100386.00
2022-09-12T15:05:11.356Z,100387.53
2022-09-12T15:07:41.005Z,100383.78
2022-09-12T15:10:25.258Z,100383.63
2022-09-12T15:13:10.059Z,100385.56
2022-09-12T15:15:37.677Z,100394.66
2022-09-12T15:18:06.755Z,100390.75
2022-09-12T15:20:38.709Z,100382.50
2022-09-12T15:23:10.903Z,100381.50
2022-09-12T15:25:37.331Z,100373.41
2022-09-12T15:28:22.610Z,100367.72
2022-09-12T15:30:52.072Z,100364.81
2022-09-12T15:33:21.026Z,100365.47
2022-09-12T15:35:47.532Z,100371.66
2022-09-12T15:38:14.056Z,100373.75
2022-09-12T15:40:40.834Z,100360.97
2022-09-12T15:43:07.393Z,100367.09
2022-09-12T15:45:35.433Z,100359.16
2022-09-12T18:48:36.397Z,100262.84
2022-09-12T18:51:11.136Z,100263.41
2022-09-12T18:53:38.977Z,100261.50
2022-09-12T18:56:10.221Z,100263.44
2022-09-12T18:58:38.198Z,100267.50
2022-09-12T19:01:14.317Z,100263.84
2022-09-12T19:03:41.706Z,100263.00
2022-09-12T19:06:17.547Z,100263.84
2022-09-12T19:08:44.891Z,100260.97
2022-09-12T19:11:12.673Z,100263.56
2022-09-12T19:13:43.166Z,100267.22
2022-09-12T19:18:39.778Z,100260.25
2022-09-12T19:21:08.180Z,100263.69
2022-09-12T19:23:36.080Z,100263.28
2022-09-12T19:26:05.712Z,100257.34
2022-09-12T19:28:33.325Z,100242.00
2022-09-12T19:30:59.867Z,100244.09
2022-09-12T19:33:26.362Z,100237.97
2022-09-12T19:35:52.709Z,100234.28
2022-09-12T19:38:19.444Z,100248.72
2022-09-12T19:40:55.928Z,100233.44
2022-09-12T19:43:22.361Z,100233.97
2022-09-12T19:45:48.787Z,100225.47
2022-09-12T19:48:15.282Z,100227.00
2022-09-12T19:50:41.727Z,100231.00
2022-09-12T19:53:08.297Z,100223.84
2022-09-12T19:55:35.910Z,100220.94
2022-09-12T19:58:02.989Z,100219.94
2022-09-12T20:00:29.670Z,100216.47
2022-09-12T20:02:56.108Z,100221.72
2022-09-12T20:05:22.450Z,100211.84
2022-09-12T20:07:48.951Z,100214.41
2022-09-12T20:10:15.383Z,100218.53
2022-09-12T20:12:42.075Z,100205.44
2022-09-12T20:15:09.604Z,100201.72
2022-09-12T20:17:36.164Z,100200.16
2022-09-12T20:20:02.718Z,100201.03
2022-09-12T20:22:29.226Z,100207.66
2022-09-12T20:24:55.614Z,100197.06
2022-09-12T20:27:22.055Z,100194.34
2022-09-12T20:29:48.464Z,100188.47
2022-09-12T20:32:14.877Z,100194.50
2022-09-12T20:34:41.246Z,100187.03
2022-09-12T20:37:07.767Z,100198.50
2022-09-12T20:39:34.458Z,100196.50
2022-09-12T20:42:00.884Z,100187.72
2022-09-12T20:44:27.646Z,100191.66
2022-09-12T20:46:54.140Z,100178.09
2022-09-12T20:49:20.593Z,100181.56
2022-09-12T20:51:48.379Z,100171.88
2022-09-12T20:54:14.933Z,100164.63
2022-09-12T20:56:41.492Z,100166.41
2022-09-12T20:59:16.775Z,100164.47
2022-09-12T21:01:44.149Z,100164.00
2022-09-12T21:04:14.389Z,100164.75
2022-09-12T21:06:41.605Z,100166.84
2022-09-12T21:09:07.963Z,100162.34
2022-09-12T21:11:34.497Z,100156.59
2022-09-12T21:14:00.916Z,100155.44
2022-09-12T21:16:27.594Z,100143.47
2022-09-12T21:18:57.882Z,100138.81
2022-09-12T21:21:25.538Z,100133.91
2022-09-12T21:23:52.053Z,100131.13
2022-09-12T21:26:18.655Z,100138.41
2022-09-12T21:28:45.085Z,100129.88
2022-09-12T21:31:11.575Z,100121.16
2022-09-12T21:33:38.063Z,100124.78
2022-09-12T21:36:05.244Z,100123.75
2022-09-12T21:38:32.392Z,100102.56
2022-09-12T21:41:28.819Z,100105.38
2022-09-12T21:43:55.267Z,100108.88
2022-09-12T21:46:21.692Z,100105.06
2022-09-12T21:48:48.247Z,100097.03
2022-09-12T21:51:14.659Z,100102.00
2022-09-12T21:53:41.139Z,100107.19
2022-09-12T21:56:08.543Z,100102.22
2022-09-12T21:58:36.064Z,100105.03
2022-09-12T22:01:02.878Z,100100.16
2022-09-12T22:03:29.619Z,100093.41
2022-09-12T22:06:01.545Z,100093.16
2022-09-12T22:08:29.678Z,100082.06
2022-09-12T22:11:02.077Z,100079.03
2022-09-12T22:13:32.490Z,100077.50
2022-09-12T22:16:00.418Z,100081.97
2022-09-12T22:18:26.923Z,100078.47
2022-09-12T22:21:00.039Z,100063.53
2022-09-12T22:23:45.177Z,100063.50
2022-09-12T22:26:12.116Z,100067.41
2022-09-12T22:28:38.532Z,100065.84
2022-09-12T22:31:06.644Z,100066.47
2022-09-12T22:33:33.083Z,100064.50
2022-09-12T22:35:59.628Z,100053.72
2022-09-12T22:38:26.065Z,100058.31
2022-09-12T22:40:52.443Z,100064.41
2022-09-12T22:43:18.856Z,100071.41
2022-09-12T22:45:45.182Z,100069.94
2022-09-12T22:48:11.691Z,100071.22
2022-09-12T22:50:38.455Z,100058.50
2022-09-12T22:53:04.910Z,100050.78
2022-09-12T22:55:31.368Z,100046.56
2022-09-12T22:57:57.787Z,100045.66
2022-09-12T23:00:24.179Z,100049.34
2022-09-12T23:02:50.780Z,100035.59
2022-09-12T23:05:17.249Z,100031.81
2022-09-12T23:07:43.656Z,100034.66
2022-09-12T23:10:10.682Z,100027.41
2022-09-12T23:12:37.116Z,100026.59
2022-09-12T23:15:03.783Z,100025.88
2022-09-12T23:17:30.241Z,100029.47
2022-09-12T23:19:56.559Z,100025.28
2022-09-12T23:22:22.974Z,100035.78
2022-09-12T23:24:49.326Z,100030.97
2022-09-12T23:27:15.788Z,100024.31
2022-09-12T23:29:42.103Z,100020.28
2022-09-12T23:32:08.532Z,100028.34
2022-09-12T23:34:34.878Z,100017.56
2022-09-12T23:37:01.350Z,100025.34
2022-09-12T23:39:27.724Z,100031.72
2022-09-12T23:41:54.223Z,100020.72
2022-09-12T23:44:20.595Z,100013.44
2022-09-12T23:46:47.032Z,100001.59
2022-09-12T23:49:13.399Z,100001.69
2022-09-12T23:51:39.808Z,99986.91
2022-09-12T23:54:06.243Z,99997.34
2022-09-12T23:56:32.644Z,99997.81
2022-09-12T23:58:59.016Z,100000.97
